createdAt,value
2018-08-19T00:00:55.365Z,2.50
2018-08-19T00:03:24.990Z,2.77
2018-08-19T00:05:59.781Z,1.93
2018-08-19T00:08:29.411Z,2.70
2018-08-19T00:11:03.998Z,2.93
2018-08-19T00:13:33.714Z,1.90
2018-08-19T00:16:03.781Z,3.53
2018-08-19T00:18:34.960Z,1.50
2018-08-19T00:21:07.108Z,4.63
2018-08-19T00:23:52.968Z,2.13
2018-08-19T00:26:22.962Z,2.77
2018-08-19T00:28:52.646Z,2.37
2018-08-19T00:31:22.085Z,2.67
2018-08-19T00:33:52.357Z,3.03
2018-08-19T00:36:30.316Z,2.20
2018-08-19T00:39:00.085Z,4.03
2018-08-19T00:41:29.704Z,2.97
2018-08-19T00:43:59.339Z,3.40
2018-08-19T00:46:31.375Z,2.67
2018-08-19T00:49:01.631Z,2.10
2018-08-19T00:51:31.545Z,3.57
2018-08-19T00:54:00.930Z,2.77
2018-08-19T00:56:30.657Z,2.33
2018-08-19T00:59:00.623Z,2.63
2018-08-19T01:01:37.311Z,1.60
2018-08-19T01:04:09.528Z,5.00
2018-08-19T01:06:44.361Z,2.37
2018-08-19T01:09:14.520Z,2.80
2018-08-19T01:11:44.575Z,4.13
2018-08-19T01:14:15.540Z,4.43
2018-08-19T01:16:45.736Z,5.37
2018-08-19T01:19:16.312Z,5.13
2018-08-19T01:21:48.613Z,4.03
2018-08-19T01:24:18.522Z,3.23
2018-08-19T01:26:48.270Z,3.27
2018-08-19T01:29:39.147Z,6.37
2018-08-19T01:32:11.165Z,3.43
2018-08-19T01:34:43.503Z,4.60
2018-08-19T01:37:13.985Z,2.27
2018-08-19T01:39:43.521Z,2.63
2018-08-19T01:42:13.100Z,3.80
2018-08-19T01:44:43.521Z,2.67
2018-08-19T01:47:13.469Z,5.17
2018-08-19T01:49:43.117Z,6.80
2018-08-19T01:52:13.078Z,2.87
2018-08-19T01:54:42.561Z,5.13
2018-08-19T01:57:12.265Z,3.30
2018-08-19T01:59:41.994Z,4.20
2018-08-19T02:02:11.817Z,5.43
2018-08-19T02:04:56.733Z,2.93
2018-08-19T02:07:26.975Z,4.63
2018-08-19T02:10:03.148Z,3.97
2018-08-19T02:12:38.371Z,4.73
2018-08-19T02:15:09.004Z,7.60
2018-08-19T02:17:45.130Z,8.43
2018-08-19T02:20:15.068Z,6.13
2018-08-19T02:22:53.509Z,8.80
2018-08-19T02:25:23.640Z,5.60
2018-08-19T02:27:53.173Z,5.43
2018-08-19T02:30:22.540Z,5.00
2018-08-19T02:32:54.791Z,8.30
2018-08-19T02:35:24.469Z,6.63
2018-08-19T02:37:54.090Z,6.00
2018-08-19T02:40:29.229Z,7.47
2018-08-19T02:42:59.151Z,6.47
2018-08-19T02:45:29.495Z,5.43
2018-08-19T02:47:59.779Z,9.03
2018-08-19T02:50:29.555Z,6.10
2018-08-19T02:52:59.511Z,3.60
2018-08-19T02:55:29.689Z,5.83
2018-08-19T02:58:04.675Z,7.67
2018-08-19T03:00:34.780Z,4.03
2018-08-19T03:03:04.552Z,6.30
2018-08-19T03:05:34.345Z,6.20
2018-08-19T03:08:04.437Z,5.77
2018-08-19T03:10:33.752Z,4.27
2018-08-19T03:13:03.331Z,6.07
2018-08-19T03:15:33.449Z,6.90
2018-08-19T03:18:03.219Z,8.87
2018-08-19T03:20:32.751Z,5.93
2018-08-19T03:23:02.896Z,6.37
2018-08-19T03:25:32.597Z,6.33
2018-08-19T03:28:02.169Z,5.97
2018-08-19T03:30:32.279Z,9.67
2018-08-19T03:33:02.258Z,10.10
2018-08-19T03:35:31.957Z,6.13
2018-08-19T03:38:07.173Z,8.70
2018-08-19T03:40:36.730Z,8.47
2018-08-19T03:43:06.626Z,9.23
2018-08-19T03:45:36.264Z,8.67
2018-08-19T03:48:06.344Z,7.53
2018-08-19T03:50:37.801Z,7.40
2018-08-19T03:53:07.658Z,5.13
2018-08-19T03:55:39.210Z,8.77
2018-08-19T03:58:11.122Z,7.97
2018-08-19T04:00:44.331Z,10.97
2018-08-19T04:03:20.827Z,6.73
2018-08-19T04:05:58.078Z,5.33
2018-08-19T04:09:00.542Z,9.77
2018-08-19T04:11:30.514Z,8.30
2018-08-19T04:14:00.328Z,6.20
2018-08-19T04:16:30.177Z,9.40
2018-08-19T04:19:06.715Z,7.87
2018-08-19T04:21:36.418Z,6.63
2018-08-19T04:24:06.380Z,10.20
2018-08-19T04:26:36.088Z,4.97
2018-08-19T04:29:10.975Z,10.30
2018-08-19T04:31:40.824Z,12.10
2018-08-19T04:34:11.078Z,9.67
2018-08-19T04:36:41.567Z,8.37
2018-08-19T04:39:11.299Z,8.80
2018-08-19T04:41:40.920Z,8.37
2018-08-19T04:44:10.675Z,10.50
2018-08-19T04:46:40.218Z,6.80
2018-08-19T04:49:10.251Z,12.10
2018-08-19T04:51:41.632Z,10.67
2018-08-19T04:54:11.421Z,6.60
2018-08-19T04:56:40.908Z,12.80
2018-08-19T04:59:10.968Z,6.20
2018-08-19T05:01:40.566Z,9.80
2018-08-19T05:04:10.026Z,8.17
2018-08-19T05:06:39.798Z,5.67
2018-08-19T05:09:10.793Z,8.67
2018-08-19T05:11:40.605Z,10.70
2018-08-19T05:14:10.116Z,8.30
2018-08-19T05:16:39.864Z,11.13
2018-08-19T05:19:09.978Z,8.23
2018-08-19T05:21:39.827Z,8.80
2018-08-19T05:24:09.356Z,14.53
2018-08-19T05:26:39.319Z,12.63
2018-08-19T05:29:12.294Z,11.57
2018-08-19T05:31:48.230Z,8.10
2018-08-19T05:34:22.207Z,8.77
2018-08-19T05:36:52.344Z,9.03
2018-08-19T05:39:22.345Z,10.00
2018-08-19T05:42:03.728Z,10.53
2018-08-19T05:44:35.743Z,8.53
2018-08-19T05:47:08.265Z,11.30
2018-08-19T05:49:40.433Z,11.20
2018-08-19T05:52:15.680Z,9.43
2018-08-19T05:54:50.711Z,10.60
2018-08-19T05:57:20.829Z,11.20
2018-08-19T05:59:51.507Z,9.43
2018-08-19T06:02:28.643Z,13.50
2018-08-19T06:04:58.607Z,7.83
2018-08-19T06:07:28.434Z,11.23
2018-08-19T06:09:58.362Z,12.37
2018-08-19T06:12:27.834Z,11.80
2018-08-19T06:15:00.537Z,9.43
2018-08-19T06:17:30.106Z,12.50
2018-08-19T06:19:59.778Z,10.70
2018-08-19T06:22:34.492Z,8.37
2018-08-19T06:25:04.802Z,12.13
2018-08-19T06:27:40.261Z,11.13
2018-08-19T06:30:10.407Z,11.93
2018-08-19T06:32:40.109Z,11.73
2018-08-19T06:35:09.753Z,9.23
2018-08-19T06:37:39.734Z,14.60
2018-08-19T06:40:12.415Z,12.33
2018-08-19T06:42:42.179Z,12.73
2018-08-19T06:45:12.855Z,14.87
2018-08-19T06:47:42.498Z,12.93
2018-08-19T06:50:20.340Z,8.53
2018-08-19T06:52:50.524Z,11.23
2018-08-19T06:55:20.576Z,9.77
2018-08-19T06:57:50.460Z,9.57
2018-08-19T07:00:24.457Z,10.90
2018-08-19T07:02:54.268Z,9.30
2018-08-19T07:05:25.024Z,12.60
2018-08-19T07:07:55.006Z,9.83
2018-08-19T07:10:30.607Z,14.77
2018-08-19T07:13:10.691Z,11.60
2018-08-19T07:15:41.813Z,11.60
2018-08-19T07:18:13.607Z,13.03
2018-08-19T07:20:44.101Z,11.00
2018-08-19T07:23:14.142Z,10.43
2018-08-19T07:25:45.336Z,8.57
2018-08-19T07:28:16.472Z,13.07
2018-08-19T07:30:46.371Z,10.77
2018-08-19T07:33:15.806Z,8.47
2018-08-19T07:35:45.880Z,11.07
2018-08-19T07:38:15.515Z,9.27
2018-08-19T07:40:44.986Z,12.97
2018-08-19T07:43:15.035Z,11.27
2018-08-19T07:45:45.050Z,8.63
2018-08-19T07:48:14.730Z,10.97
2018-08-19T07:50:44.818Z,12.73
2018-08-19T07:53:14.613Z,8.80
2018-08-19T07:55:43.998Z,9.53
2018-08-19T07:58:13.871Z,11.20
2018-08-19T08:00:43.597Z,11.80
2018-08-19T08:03:12.935Z,8.70
2018-08-19T08:05:49.444Z,7.40
2018-08-19T08:08:19.344Z,9.47
2018-08-19T08:10:49.235Z,7.07
2018-08-19T08:13:19.657Z,9.33
2018-08-19T08:15:53.440Z,9.40
2018-08-19T08:18:23.075Z,7.73
2018-08-19T08:21:05.010Z,12.90
2018-08-19T08:23:34.618Z,12.20
2018-08-19T08:26:05.912Z,7.17
2018-08-19T08:28:35.566Z,11.33
2018-08-19T08:31:12.219Z,11.37
2018-08-19T08:33:42.165Z,11.60
2018-08-19T08:36:26.776Z,6.37
2018-08-19T08:38:56.241Z,10.73
2018-08-19T08:41:25.937Z,15.90
2018-08-19T08:43:56.001Z,10.67
2018-08-19T08:46:25.707Z,7.50
2018-08-19T08:48:55.478Z,8.30
2018-08-19T08:51:25.752Z,6.10
2018-08-19T08:53:56.732Z,7.97
2018-08-19T08:56:26.805Z,6.50
2018-08-19T08:58:56.496Z,10.27
2018-08-19T09:01:26.164Z,10.23
2018-08-19T09:03:56.176Z,5.80
2018-08-19T09:06:29.377Z,7.50
2018-08-19T09:08:59.518Z,4.70
2018-08-19T09:11:29.355Z,9.13
2018-08-19T09:13:59.578Z,5.60
2018-08-19T09:16:29.311Z,12.70
2018-08-19T09:18:59.004Z,8.80
2018-08-19T09:21:28.659Z,8.03
2018-08-19T09:23:58.889Z,7.90
2018-08-19T09:26:28.641Z,7.37
2018-08-19T09:28:58.065Z,7.03
2018-08-19T09:31:28.163Z,4.90
2018-08-19T09:33:57.770Z,7.53
2018-08-19T09:36:27.482Z,9.10
2018-08-19T09:38:57.555Z,6.03
2018-08-19T09:41:27.316Z,6.13
2018-08-19T09:43:56.913Z,7.97
2018-08-19T09:46:26.982Z,10.13
2018-08-19T09:48:56.591Z,7.03
2018-08-19T09:51:26.371Z,12.50
2018-08-19T09:53:56.317Z,7.80
2018-08-19T09:56:40.566Z,8.40
2018-08-19T09:59:10.584Z,7.10
2018-08-19T10:01:41.966Z,12.30
2018-08-19T10:04:16.890Z,4.90
2018-08-19T10:06:46.680Z,10.23
2018-08-19T10:09:16.865Z,7.57
2018-08-19T10:11:46.732Z,6.20
2018-08-19T10:14:16.576Z,7.63
2018-08-19T10:16:47.656Z,4.20
2018-08-19T10:19:17.391Z,10.87
2018-08-19T10:21:47.184Z,7.93
2018-08-19T10:24:21.031Z,4.73
2018-08-19T10:26:50.641Z,9.50
2018-08-19T10:29:20.361Z,5.50
2018-08-19T10:32:05.292Z,5.63
2018-08-19T10:34:36.277Z,5.57
2018-08-19T10:37:06.577Z,5.87
2018-08-19T10:39:35.958Z,9.90
2018-08-19T10:42:18.454Z,5.23
2018-08-19T10:44:50.741Z,6.30
2018-08-19T10:47:20.946Z,7.03
2018-08-19T10:49:56.902Z,5.77
2018-08-19T10:52:27.880Z,5.10
2018-08-19T10:54:58.718Z,6.57
2018-08-19T10:57:28.388Z,5.63
2018-08-19T10:59:59.229Z,3.10
2018-08-19T11:02:28.733Z,6.07
2018-08-19T11:05:01.377Z,2.70
2018-08-19T11:07:31.083Z,5.53
2018-08-19T11:10:13.309Z,4.43
2018-08-19T11:12:43.500Z,5.60
2018-08-19T11:15:27.887Z,3.40
2018-08-19T11:17:58.356Z,7.03
2018-08-19T11:20:39.001Z,4.87
2018-08-19T11:23:13.872Z,4.80
2018-08-19T11:25:43.368Z,6.23
2018-08-19T11:28:24.446Z,6.03
2018-08-19T11:30:54.125Z,4.90
2018-08-19T11:33:39.273Z,4.70
2018-08-19T11:36:09.654Z,4.57
2018-08-19T11:38:39.642Z,3.00
2018-08-19T11:41:10.233Z,4.13
2018-08-19T11:43:44.022Z,4.93
2018-08-19T11:46:13.824Z,5.33
2018-08-19T11:48:44.771Z,6.43
2018-08-19T11:51:14.337Z,7.70
2018-08-19T11:53:44.099Z,4.50
2018-08-19T11:56:14.064Z,6.73
2018-08-19T11:58:47.230Z,4.73
2018-08-19T12:01:21.443Z,5.33
2018-08-19T12:04:03.335Z,5.40
2018-08-19T12:06:34.604Z,6.20
2018-08-19T12:09:06.167Z,5.33
2018-08-19T12:11:43.270Z,5.73
2018-08-19T12:14:14.769Z,3.77
2018-08-19T12:16:50.397Z,4.50
2018-08-19T12:19:23.047Z,5.00
2018-08-19T12:21:56.922Z,5.77
2018-08-19T12:24:36.397Z,6.57
2018-08-19T12:27:07.920Z,4.83
2018-08-19T12:29:38.628Z,3.97
2018-08-19T12:32:22.033Z,6.23
2018-08-19T12:34:58.117Z,6.23
2018-08-19T12:40:32.263Z,3.87
2018-08-19T12:43:02.107Z,2.87
2018-08-19T12:45:31.511Z,4.77
2018-08-19T12:48:01.689Z,4.93
2018-08-19T12:50:31.230Z,3.10
2018-08-19T12:53:00.851Z,6.27
2018-08-19T12:55:30.566Z,4.40
2018-08-19T12:58:05.450Z,7.87
2018-08-19T13:00:35.003Z,5.37
2018-08-19T13:03:04.788Z,7.27
2018-08-19T13:05:34.525Z,6.03
2018-08-19T13:08:04.192Z,5.67
2018-08-19T13:10:39.174Z,2.23
2018-08-19T13:13:09.073Z,4.03
2018-08-19T13:15:38.619Z,4.80
2018-08-19T13:18:08.171Z,5.73
2018-08-19T13:20:37.614Z,4.73
2018-08-19T13:23:07.411Z,2.60
2018-08-19T13:25:36.974Z,3.43
2018-08-19T13:28:06.855Z,3.03
2018-08-19T13:30:36.900Z,5.13
2018-08-19T13:33:06.609Z,3.30
2018-08-19T13:35:36.456Z,3.23
2018-08-19T13:38:06.366Z,5.40
2018-08-19T13:40:35.969Z,3.53
2018-08-19T13:43:06.250Z,4.90
2018-08-19T13:45:35.822Z,3.60
2018-08-19T13:48:05.826Z,2.97
2018-08-19T13:50:35.749Z,2.73
2018-08-19T13:53:05.745Z,2.97
2018-08-19T13:55:35.392Z,3.63
2018-08-19T13:58:05.183Z,4.63
2018-08-19T14:00:34.743Z,3.93
2018-08-19T14:03:04.342Z,2.73
2018-08-19T14:05:34.322Z,2.60
2018-08-19T14:08:04.201Z,4.07
2018-08-19T14:10:33.757Z,4.27
2018-08-19T14:13:03.650Z,3.17
2018-08-19T14:15:33.347Z,3.30
2018-08-19T14:18:03.330Z,4.57
2018-08-19T14:20:33.252Z,3.20
2018-08-19T14:23:02.924Z,2.93
2018-08-19T14:25:32.569Z,2.70
2018-08-19T14:28:02.468Z,4.43
2018-08-19T14:30:32.394Z,3.20
2018-08-19T14:33:02.396Z,2.73
2018-08-19T14:35:32.522Z,3.30
2018-08-19T14:38:02.326Z,3.17
2018-08-19T14:40:32.095Z,2.33
2018-08-19T14:43:01.867Z,1.90
2018-08-19T14:45:31.460Z,4.00
2018-08-19T14:48:01.368Z,4.30
2018-08-19T14:50:31.766Z,3.90
2018-08-19T14:53:01.606Z,6.33
2018-08-19T14:55:31.912Z,3.20
2018-08-19T14:58:02.204Z,2.10
2018-08-19T15:00:31.668Z,3.60
2018-08-19T15:03:01.310Z,3.93
2018-08-19T15:05:31.415Z,4.40
2018-08-19T15:08:07.138Z,7.47
2018-08-19T15:10:37.612Z,5.60
2018-08-19T15:13:07.455Z,3.80
2018-08-19T15:15:37.145Z,3.63
2018-08-19T15:18:07.210Z,6.53
2018-08-19T15:20:37.436Z,6.53
2018-08-19T15:23:18.591Z,5.40
2018-08-19T15:25:48.491Z,5.97
2018-08-19T15:28:19.154Z,5.10
2018-08-19T15:30:49.142Z,7.00
2018-08-19T15:33:18.912Z,6.43
2018-08-19T15:35:49.033Z,3.10
2018-08-19T15:38:18.719Z,5.87
2018-08-19T15:40:49.516Z,6.20
2018-08-19T15:43:22.037Z,5.27
2018-08-19T15:45:52.595Z,4.77
2018-08-19T15:48:23.079Z,6.70
2018-08-19T15:50:57.576Z,7.47
2018-08-19T15:53:27.875Z,5.07
2018-08-19T15:55:57.965Z,5.37
2018-08-19T15:58:29.515Z,5.97
2018-08-19T16:00:59.693Z,5.90
2018-08-19T16:03:29.637Z,4.80
2018-08-19T16:05:59.540Z,4.40
2018-08-19T16:08:29.249Z,5.20
2018-08-19T16:10:59.639Z,5.20
2018-08-19T16:13:29.710Z,5.17
2018-08-19T16:15:59.890Z,6.00
2018-08-19T16:18:30.122Z,4.77
2018-08-19T16:21:03.538Z,3.73
2018-08-19T16:23:33.454Z,6.67
2018-08-19T16:26:04.899Z,6.43
2018-08-19T16:28:35.128Z,3.33
2018-08-19T16:31:05.756Z,4.23
2018-08-19T16:33:36.882Z,3.40
2018-08-19T16:36:06.766Z,7.07
2018-08-19T16:38:36.896Z,6.40
2018-08-19T16:41:06.966Z,6.20
2018-08-19T16:43:36.669Z,4.33
2018-08-19T16:46:06.334Z,4.33
2018-08-19T16:48:36.595Z,6.23
2018-08-19T16:51:06.286Z,3.50
2018-08-19T16:53:36.117Z,5.53
2018-08-19T16:56:06.744Z,8.00
2018-08-19T16:58:36.849Z,4.97
2018-08-19T17:01:06.465Z,6.80
2018-08-19T17:03:38.548Z,6.07
2018-08-19T17:06:13.562Z,2.53
2018-08-19T17:08:43.823Z,5.80
2018-08-19T17:11:14.541Z,6.83
2018-08-19T17:13:44.135Z,5.93
2018-08-19T17:16:14.183Z,4.30
2018-08-19T17:18:44.103Z,5.37
2018-08-19T17:21:14.760Z,5.93
2018-08-19T17:23:48.579Z,3.40
2018-08-19T17:26:20.128Z,6.63
2018-08-19T17:28:50.080Z,4.37
2018-08-19T17:31:20.158Z,6.37
2018-08-19T17:33:49.832Z,4.90
2018-08-19T17:36:27.138Z,3.27
2018-08-19T17:38:57.306Z,4.47
2018-08-19T17:41:27.657Z,5.47
2018-08-19T17:43:57.398Z,4.83
2018-08-19T17:46:27.066Z,5.03
2018-08-19T17:48:57.220Z,5.80
2018-08-19T17:51:33.559Z,5.57
2018-08-19T17:54:03.834Z,5.57
2018-08-19T17:56:33.699Z,6.63
2018-08-19T17:59:06.204Z,7.60
2018-08-19T18:01:40.158Z,4.60
2018-08-19T18:04:10.007Z,6.43
2018-08-19T18:06:39.817Z,5.17
2018-08-19T18:11:41.265Z,6.80
2018-08-19T18:14:11.129Z,4.67
2018-08-19T18:16:41.299Z,2.93
2018-08-19T18:19:10.778Z,7.03
2018-08-19T18:21:41.346Z,4.17
2018-08-19T18:24:11.519Z,4.17
2018-08-19T18:26:41.490Z,2.97
2018-08-19T18:29:11.285Z,5.70
2018-08-19T18:31:41.240Z,6.70
2018-08-19T18:34:10.762Z,4.73
2018-08-19T18:36:40.431Z,5.80
2018-08-19T18:39:11.824Z,4.47
2018-08-19T18:41:44.448Z,6.97
2018-08-19T18:44:14.462Z,5.40
2018-08-19T18:46:44.139Z,3.40
2018-08-19T18:49:14.508Z,4.13
2018-08-19T18:51:46.485Z,5.10
2018-08-19T18:54:32.109Z,4.67
2018-08-19T18:57:05.142Z,4.53
2018-08-19T18:59:35.475Z,3.60
2018-08-19T19:02:06.646Z,4.77
2018-08-19T19:04:36.729Z,1.80
2018-08-19T19:07:06.852Z,4.10
2018-08-19T19:09:41.786Z,5.33
2018-08-19T19:12:11.655Z,4.43
2018-08-19T19:14:41.259Z,3.37
2018-08-19T19:17:10.842Z,3.23
2018-08-19T19:19:45.596Z,3.17
2018-08-19T19:22:15.638Z,4.40
2018-08-19T19:24:45.223Z,4.23
2018-08-19T19:27:15.557Z,5.10
2018-08-19T19:29:50.839Z,2.97
2018-08-19T19:32:27.788Z,4.97
2018-08-19T19:35:06.220Z,1.80
2018-08-19T19:37:37.192Z,5.60
2018-08-19T19:40:10.254Z,4.33
2018-08-19T19:42:39.792Z,4.60
2018-08-19T19:45:09.538Z,5.03
2018-08-19T19:47:39.536Z,6.40
2018-08-19T19:50:09.850Z,5.83
2018-08-19T19:52:44.970Z,3.83
2018-08-19T19:55:14.478Z,4.10
2018-08-19T19:57:44.662Z,5.33
2018-08-19T20:00:14.741Z,6.00
2018-08-19T20:02:44.500Z,5.00
2018-08-19T20:05:19.443Z,2.97
2018-08-19T20:07:49.359Z,3.60
2018-08-19T20:10:29.452Z,5.57
2018-08-19T20:12:59.621Z,3.63
2018-08-19T20:15:29.446Z,4.80
2018-08-19T20:17:59.502Z,3.97
2018-08-19T20:20:31.381Z,1.97
2018-08-19T20:23:02.047Z,4.67
2018-08-19T20:25:31.850Z,4.97
2018-08-19T20:28:06.574Z,2.73
2018-08-19T20:30:36.974Z,3.33
2018-08-19T20:33:07.270Z,4.67
2018-08-19T20:35:37.052Z,7.00
2018-08-19T20:38:07.155Z,5.10
2018-08-19T20:40:37.128Z,6.33
2018-08-19T20:43:11.242Z,5.13
2018-08-19T20:45:41.315Z,3.53
2018-08-19T20:48:11.441Z,5.00
2018-08-19T20:50:41.252Z,4.70
2018-08-19T20:53:11.381Z,5.57
2018-08-19T20:55:41.129Z,4.47
2018-08-19T20:58:10.695Z,4.37
2018-08-19T21:00:40.858Z,4.60
2018-08-19T21:03:11.018Z,3.27
2018-08-19T21:05:40.709Z,6.63
2018-08-19T21:08:14.465Z,5.23
2018-08-19T21:10:44.917Z,5.27
2018-08-19T21:13:15.803Z,7.13
2018-08-19T21:15:46.698Z,4.80
2018-08-19T21:18:16.600Z,5.07
2018-08-19T21:20:46.073Z,3.87
2018-08-19T21:23:15.819Z,3.83
2018-08-19T21:25:51.672Z,3.77
2018-08-19T21:28:21.690Z,4.73
2018-08-19T21:30:51.325Z,4.67
2018-08-19T21:33:21.014Z,6.67
2018-08-19T21:35:52.510Z,5.33
2018-08-19T21:38:22.217Z,9.73
2018-08-19T21:40:57.049Z,4.57
2018-08-19T21:43:30.647Z,2.53
2018-08-19T21:46:00.976Z,4.53
2018-08-19T21:48:30.880Z,4.03
2018-08-19T21:51:00.568Z,6.80
2018-08-19T21:53:30.368Z,6.73
2018-08-19T21:56:00.186Z,5.37
2018-08-19T21:58:29.910Z,6.67
2018-08-19T22:01:01.769Z,6.90
2018-08-19T22:03:36.549Z,5.23
2018-08-19T22:06:08.646Z,5.80
2018-08-19T22:08:38.568Z,6.00
2018-08-19T22:11:08.272Z,7.83
2018-08-19T22:13:38.493Z,7.30
2018-08-19T22:16:08.576Z,4.47
2018-08-19T22:18:38.494Z,4.97
2018-08-19T22:21:24.803Z,5.20
2018-08-19T22:23:56.625Z,6.83
2018-08-19T22:26:26.857Z,7.87
2018-08-19T22:29:10.211Z,4.93
2018-08-19T22:31:40.080Z,7.57
2018-08-19T22:34:09.684Z,5.83
2018-08-19T22:36:39.243Z,6.53
2018-08-19T22:39:10.760Z,5.53
2018-08-19T22:41:41.316Z,3.40
2018-08-19T22:44:11.366Z,5.43
2018-08-19T22:46:41.458Z,4.77
2018-08-19T22:49:11.343Z,5.23
2018-08-19T22:51:41.582Z,5.43
2018-08-19T22:54:11.690Z,7.33
2018-08-19T22:56:41.727Z,4.43
2018-08-19T22:59:11.543Z,3.67
2018-08-19T23:01:46.605Z,4.90
2018-08-19T23:04:16.566Z,7.17
2018-08-19T23:06:46.202Z,8.33
2018-08-19T23:09:15.758Z,7.17
2018-08-19T23:11:47.734Z,4.17
2018-08-19T23:14:28.237Z,4.90
2018-08-19T23:16:58.173Z,4.20
2018-08-19T23:19:27.809Z,5.97
2018-08-19T23:21:57.448Z,3.83
2018-08-19T23:24:27.339Z,5.93
2018-08-19T23:26:56.926Z,5.17
2018-08-19T23:29:26.539Z,6.97
2018-08-19T23:31:56.332Z,7.57
2018-08-19T23:34:25.937Z,5.97
2018-08-19T23:36:55.573Z,5.20
2018-08-19T23:39:25.609Z,4.00
2018-08-19T23:41:55.139Z,4.37
2018-08-19T23:44:24.895Z,4.70
2018-08-19T23:46:55.010Z,4.30
2018-08-19T23:49:24.477Z,6.60
2018-08-19T23:51:54.288Z,3.80
2018-08-19T23:54:24.495Z,5.77
2018-08-19T23:56:54.174Z,4.73
2018-08-19T23:59:27.611Z,6.00
